Mexico, Indiana
Current Conditions -  °F | °C
As of 7:40 PM on Sunday 25 Jan 2015 (Local Time) from KGUS Reporting Station
Blowing Snow Blowing Snow  
Wind Chill:   Ceiling: 900
Heat Index: 23°   Visibility: 5mi
Dew Point: 19°   Wind: 22mph
Humidity: 86%   Direction: 50°NE
Pressure: 29.83"   Gusts: NA
Location:  40.82°N, 86.12°W
Report Text: KGUS 260040Z 05019KT 5SM BLSN BR BKN009 BKN016 OVC030 M05/M07 A2983
Loading
Personal Weather Stations






























Interactive Weather Map New forecast layout! Learn more

10-Day Weather Forecast

Advertisements
Track Severe Weather on mobile